createdAt,value
2018-04-28T00:02:17.547Z,86.93
2018-04-28T00:04:46.587Z,87.04
2018-04-28T00:07:15.631Z,87.28
2018-04-28T00:09:46.513Z,87.03
2018-04-28T00:12:15.567Z,87.14
2018-04-28T00:14:44.652Z,87.27
2018-04-28T00:17:16.541Z,87.17
2018-04-28T00:20:01.193Z,86.92
2018-04-28T00:22:50.846Z,86.81
2018-04-28T00:25:20.476Z,86.90
2018-04-28T00:28:01.338Z,86.71
2018-04-28T00:30:51.032Z,87.14
2018-04-28T00:38:52.115Z,87.18
2018-04-28T00:41:22.020Z,87.18
2018-04-28T00:43:51.026Z,87.37
2018-04-28T00:46:26.458Z,87.28
2018-04-28T00:49:11.325Z,87.06
2018-04-28T00:51:42.159Z,86.87
2018-04-28T00:54:20.274Z,87.12
2018-04-28T00:56:58.076Z,87.01
2018-04-28T00:59:28.744Z,86.70
2018-04-28T01:02:13.768Z,86.66
2018-04-28T01:04:46.360Z,86.68
2018-04-28T01:07:28.658Z,86.71
2018-04-28T01:10:01.490Z,86.64
2018-04-28T01:12:33.259Z,86.81
2018-04-28T01:15:02.303Z,86.65
2018-04-28T01:17:31.403Z,86.25
2018-04-28T01:20:09.263Z,86.26
2018-04-28T01:22:43.038Z,86.49
2018-04-28T01:25:32.342Z,86.47
2018-04-28T01:28:01.374Z,86.46
2018-04-28T01:33:48.544Z,86.04
2018-04-28T01:36:38.004Z,86.00
2018-04-28T01:39:09.181Z,85.91
2018-04-28T01:41:41.969Z,85.72
2018-04-28T01:44:26.986Z,85.96
2018-04-28T01:46:59.343Z,85.65
2018-04-28T01:49:29.158Z,85.73
2018-04-28T01:52:19.117Z,85.74
2018-04-28T01:54:51.118Z,85.79
2018-04-28T01:57:23.185Z,85.77
2018-04-28T02:00:10.206Z,85.62
2018-04-28T02:08:19.887Z,85.39
2018-04-28T02:11:02.341Z,85.45
2018-04-28T02:13:53.096Z,85.15
2018-04-28T02:22:14.972Z,84.46
2018-04-28T02:25:05.816Z,84.74
2018-04-28T02:27:42.860Z,84.97
2018-04-28T02:30:12.962Z,84.73
2018-04-28T02:35:25.370Z,84.62
2018-04-28T02:38:18.044Z,84.68
2018-04-28T02:40:54.734Z,84.48
2018-04-28T02:43:24.859Z,84.19
2018-04-28T02:45:55.996Z,84.23
2018-04-28T02:48:30.825Z,84.13
2018-04-28T02:51:04.839Z,83.98
2018-04-28T02:53:51.357Z,84.10
2018-04-28T02:59:25.629Z,84.20
2018-04-28T03:02:05.010Z,84.30
2018-04-28T03:04:49.076Z,84.33
2018-04-28T03:10:22.179Z,84.33
2018-04-28T03:12:51.023Z,84.67
2018-04-28T03:15:19.853Z,84.25
2018-04-28T03:18:06.123Z,84.23
2018-04-28T03:20:47.355Z,83.90
2018-04-28T03:23:27.146Z,83.55
2018-04-28T03:25:59.872Z,83.37
2018-04-28T03:28:32.349Z,83.09
2018-04-28T03:31:03.780Z,82.70
2018-04-28T03:33:38.874Z,82.10
2018-04-28T03:36:26.051Z,81.03
2018-04-28T03:39:10.517Z,78.61
2018-04-28T03:41:56.807Z,75.87
2018-04-28T03:44:34.332Z,73.24
2018-04-28T03:50:27.082Z,68.92
2018-04-28T03:53:01.637Z,67.64
2018-04-28T03:55:32.171Z,66.71
2018-04-28T03:58:12.694Z,64.40
2018-04-28T04:00:54.013Z,62.79
2018-04-28T04:03:23.639Z,62.23
2018-04-28T04:06:12.971Z,60.46
2018-04-28T04:08:50.656Z,60.41
2018-04-28T04:11:41.881Z,57.79
2018-04-28T04:14:27.048Z,55.32
2018-04-28T04:17:07.500Z,54.70
2018-04-28T04:19:46.025Z,53.86
2018-04-28T04:22:21.469Z,53.21
2018-04-28T04:24:50.304Z,53.21
2018-04-28T04:27:37.683Z,51.14
2018-04-28T04:30:18.068Z,52.69
2018-04-28T04:32:51.498Z,54.17
2018-04-28T04:35:41.508Z,49.79
2018-04-28T04:38:28.038Z,51.42
2018-04-28T04:44:15.212Z,50.44
2018-04-28T04:49:59.088Z,50.15
2018-04-28T04:52:54.508Z,49.87
2018-04-28T04:55:43.063Z,49.25
2018-04-28T04:58:23.772Z,50.76
2018-04-28T05:07:10.487Z,48.23
2018-04-28T05:09:48.979Z,47.47
2018-04-28T05:12:24.373Z,47.01
2018-04-28T05:15:17.767Z,46.30
2018-04-28T05:20:43.335Z,45.72
2018-04-28T05:23:17.815Z,46.37
2018-04-28T05:26:05.997Z,44.33
2018-04-28T05:28:48.706Z,45.72
2018-04-28T05:34:30.186Z,44.75
2018-04-28T05:37:10.750Z,41.56
2018-04-28T05:42:59.634Z,42.19
2018-04-28T05:45:40.215Z,44.88
2018-04-28T05:48:34.589Z,42.71
2018-04-28T05:51:32.608Z,44.13
2018-04-28T05:54:07.090Z,41.93
2018-04-28T05:56:58.911Z,42.27
2018-04-28T05:59:42.843Z,43.31
2018-04-28T06:02:18.608Z,43.65
2018-04-28T06:05:08.808Z,42.95
2018-04-28T06:10:22.718Z,43.55
2018-04-28T06:12:59.009Z,44.03
2018-04-28T06:18:33.825Z,43.21
2018-04-28T06:21:02.582Z,40.64
2018-04-28T06:23:31.289Z,40.00
2018-04-28T06:26:00.322Z,41.93
2018-04-28T06:28:29.144Z,42.49
2018-04-28T06:30:58.350Z,41.09
2018-04-28T06:33:29.090Z,40.47
2018-04-28T06:35:57.762Z,42.13
2018-04-28T06:38:26.650Z,41.41
2018-04-28T06:40:55.406Z,39.44
2018-04-28T06:43:24.134Z,38.12
2018-04-28T06:45:52.822Z,39.58
2018-04-28T06:48:21.443Z,37.80
2018-04-28T06:50:50.192Z,38.12
2018-04-28T06:53:18.882Z,37.37
2018-04-28T06:55:49.409Z,38.71
2018-04-28T06:58:18.339Z,39.60
2018-04-28T07:00:47.239Z,40.49
2018-04-28T07:03:16.844Z,41.75
2018-04-28T07:05:45.490Z,41.36
2018-04-28T07:08:14.266Z,40.14
2018-04-28T07:10:43.210Z,41.96
2018-04-28T07:13:11.959Z,42.42
2018-04-28T07:15:40.748Z,42.69
2018-04-28T07:18:10.265Z,40.47
2018-04-28T07:20:39.158Z,42.10
2018-04-28T07:23:07.803Z,42.42
2018-04-28T07:25:37.163Z,41.67
2018-04-28T07:28:05.928Z,41.00
2018-04-28T07:30:34.932Z,42.76
2018-04-28T07:33:05.555Z,44.09
2018-04-28T07:35:34.271Z,46.02
2018-04-28T07:38:03.029Z,46.79
2018-04-28T07:40:31.871Z,51.27
2018-04-28T07:43:00.649Z,51.11
2018-04-28T07:45:29.499Z,52.79
2018-04-28T07:47:59.260Z,53.50
2018-04-28T07:50:28.033Z,53.60
2018-04-28T07:52:57.824Z,56.03
2018-04-28T07:55:28.069Z,57.18
2018-04-28T07:57:56.723Z,55.78
2018-04-28T08:00:25.382Z,56.58
2018-04-28T08:02:54.403Z,55.98
2018-04-28T08:05:23.098Z,58.71
2018-04-28T08:07:52.013Z,60.10
2018-04-28T08:10:21.027Z,59.82
2018-04-28T08:12:49.850Z,60.09
2018-04-28T08:15:18.509Z,59.26
2018-04-28T08:17:47.503Z,60.04
2018-04-28T08:20:16.371Z,59.17
2018-04-28T08:22:45.116Z,60.97
2018-04-28T08:25:18.532Z,59.70
2018-04-28T08:27:48.551Z,60.39
2018-04-28T08:30:17.242Z,59.61
2018-04-28T08:32:46.839Z,59.02
2018-04-28T08:35:15.526Z,58.84
2018-04-28T08:37:44.300Z,58.30
2018-04-28T08:42:47.414Z,58.99
2018-04-28T08:45:16.112Z,58.13
2018-04-28T08:47:44.692Z,58.93
2018-04-28T08:50:13.516Z,57.74
2018-04-28T08:52:42.373Z,58.04
2018-04-28T08:55:11.056Z,58.74
2018-04-28T08:57:39.750Z,59.83
2018-04-28T09:03:04.973Z,58.57
2018-04-28T09:05:33.517Z,56.67
2018-04-28T09:08:02.114Z,58.11
2018-04-28T09:10:33.322Z,57.67
2018-04-28T09:13:02.331Z,61.22
2018-04-28T09:15:31.264Z,59.47
2018-04-28T09:18:00.532Z,59.97
2018-04-28T09:20:29.563Z,61.56
2018-04-28T09:22:58.495Z,59.92
2018-04-28T09:25:28.912Z,59.19
2018-04-28T09:27:57.882Z,61.94
2018-04-28T09:30:26.783Z,61.93
2018-04-28T09:32:55.679Z,60.24
2018-04-28T09:35:24.748Z,62.42
2018-04-28T09:37:53.687Z,61.62
2018-04-28T09:42:57.876Z,61.32
2018-04-28T09:45:26.876Z,61.04
2018-04-28T09:47:55.801Z,59.36
2018-04-28T09:50:26.087Z,60.45
2018-04-28T09:52:55.805Z,60.29
2018-04-28T09:55:24.627Z,62.42
2018-04-28T09:58:06.491Z,63.24
2018-04-28T10:00:51.003Z,61.45
2018-04-28T10:03:24.547Z,64.12
2018-04-28T10:05:53.659Z,64.81
2018-04-28T10:08:22.512Z,65.38
2018-04-28T10:10:53.272Z,64.24
2018-04-28T10:13:22.271Z,64.96
2018-04-28T10:15:51.372Z,64.97
2018-04-28T10:18:20.354Z,63.72
2018-04-28T10:20:50.071Z,65.37
2018-04-28T10:23:19.003Z,63.93
2018-04-28T10:25:47.845Z,63.88
2018-04-28T10:28:16.744Z,64.05
2018-04-28T10:30:45.772Z,63.25
2018-04-28T10:33:15.544Z,64.32
2018-04-28T10:35:44.544Z,64.02
2018-04-28T10:38:13.736Z,64.08
2018-04-28T10:40:44.542Z,64.33
2018-04-28T10:43:13.472Z,64.83
2018-04-28T10:45:42.366Z,63.47
2018-04-28T10:48:11.253Z,65.00
2018-04-28T10:50:40.242Z,65.41
2018-04-28T10:53:09.986Z,64.27
2018-04-28T10:55:41.547Z,63.48
2018-04-28T10:58:10.608Z,63.77
2018-04-28T11:00:39.717Z,64.01
2018-04-28T11:03:08.601Z,61.67
2018-04-28T11:05:37.628Z,63.55
2018-04-28T11:08:06.484Z,61.98
2018-04-28T11:10:35.580Z,62.65
2018-04-28T11:13:04.475Z,63.46
2018-04-28T11:15:33.424Z,64.08
2018-04-28T11:18:05.224Z,64.53
2018-04-28T11:20:34.203Z,65.43
2018-04-28T11:23:03.250Z,66.47
2018-04-28T11:25:33.213Z,64.63
2018-04-28T11:28:02.119Z,64.91
2018-04-28T11:30:31.017Z,67.31
2018-04-28T11:33:00.132Z,66.33
2018-04-28T11:35:29.101Z,66.89
2018-04-28T11:37:58.196Z,67.01
2018-04-28T11:43:01.518Z,66.43
2018-04-28T11:45:30.614Z,65.80
2018-04-28T11:47:59.545Z,65.50
2018-04-28T11:50:28.502Z,65.57
2018-04-28T11:52:57.590Z,66.97
2018-04-28T11:55:27.814Z,65.79
2018-04-28T11:57:56.817Z,64.64
2018-04-28T12:00:25.696Z,65.77
2018-04-28T12:02:55.477Z,66.53
2018-04-28T12:05:25.639Z,66.80
2018-04-28T12:07:54.506Z,66.22
2018-04-28T12:12:57.430Z,66.63
2018-04-28T12:15:26.626Z,67.48
2018-04-28T12:17:56.330Z,65.10
2018-04-28T12:20:26.147Z,65.33
2018-04-28T12:22:56.154Z,65.73
2018-04-28T12:25:25.164Z,65.68
2018-04-28T12:27:54.100Z,66.60
2018-04-28T12:30:23.151Z,64.22
2018-04-28T12:32:52.245Z,65.27
2018-04-28T12:35:21.132Z,64.05
2018-04-28T12:37:50.043Z,64.28
2018-04-28T12:40:21.490Z,64.77
2018-04-28T12:42:50.578Z,65.99
2018-04-28T12:45:19.577Z,66.38
2018-04-28T12:47:48.565Z,64.02
2018-04-28T12:50:17.563Z,64.50
2018-04-28T12:52:47.330Z,64.78
2018-04-28T12:55:21.652Z,65.25
2018-04-28T12:57:50.480Z,65.79
2018-04-28T13:00:19.483Z,64.04
2018-04-28T13:02:48.570Z,65.10
2018-04-28T13:05:17.506Z,65.81
2018-04-28T13:07:46.469Z,63.03
2018-04-28T13:10:15.429Z,63.60
2018-04-28T13:12:44.364Z,61.53
2018-04-28T13:15:13.217Z,63.92
2018-04-28T13:17:42.131Z,64.62
2018-04-28T13:20:11.220Z,63.02
2018-04-28T13:22:40.241Z,63.56
2018-04-28T13:25:09.034Z,62.47
2018-04-28T13:27:38.002Z,62.17
2018-04-28T13:30:07.096Z,60.67
2018-04-28T13:32:36.086Z,62.92
2018-04-28T13:35:05.069Z,64.41
2018-04-28T13:37:34.604Z,57.76
2018-04-28T13:40:03.898Z,61.88
2018-04-28T13:42:32.895Z,60.79
2018-04-28T13:45:01.812Z,61.38
2018-04-28T13:47:30.879Z,61.75
2018-04-28T13:49:59.973Z,61.41
2018-04-28T13:52:28.896Z,59.55
2018-04-28T13:54:58.641Z,62.40
2018-04-28T13:57:27.581Z,61.24
2018-04-28T13:59:56.663Z,59.72
2018-04-28T14:02:27.498Z,57.99
2018-04-28T14:04:57.218Z,59.32
2018-04-28T14:07:26.113Z,57.65
2018-04-28T14:09:55.159Z,58.48
2018-04-28T14:12:24.096Z,58.10
2018-04-28T14:14:53.298Z,57.95
2018-04-28T14:17:23.319Z,59.10
2018-04-28T14:19:52.239Z,55.42
2018-04-28T14:22:21.137Z,61.56
2018-04-28T14:24:51.929Z,58.83
2018-04-28T14:27:21.029Z,59.17
2018-04-28T14:29:49.932Z,60.42
2018-04-28T14:34:53.745Z,60.41
2018-04-28T14:37:22.618Z,59.61
2018-04-28T14:39:56.746Z,59.54
2018-04-28T14:42:40.806Z,59.42
2018-04-28T14:47:43.734Z,58.54
2018-04-28T14:50:12.691Z,61.18
2018-04-28T14:52:41.809Z,60.42
2018-04-28T14:55:10.785Z,59.42
2018-04-28T15:00:20.448Z,60.50
2018-04-28T15:02:49.340Z,60.47
2018-04-28T15:05:18.441Z,61.08
2018-04-28T15:07:47.440Z,61.78
2018-04-28T15:12:55.760Z,60.77
2018-04-28T15:15:24.857Z,62.87
2018-04-28T15:17:53.886Z,59.86
2018-04-28T15:20:22.743Z,60.61
2018-04-28T15:22:51.649Z,61.27
2018-04-28T15:25:21.753Z,62.27
2018-04-28T15:27:50.752Z,60.72
2018-04-28T15:30:19.577Z,61.16
2018-04-28T15:32:48.535Z,61.06
2018-04-28T15:35:17.453Z,61.29
2018-04-28T15:37:46.334Z,61.39
2018-04-28T15:40:16.164Z,61.00
2018-04-28T15:42:45.063Z,61.36
2018-04-28T15:45:14.051Z,61.14
2018-04-28T15:47:43.829Z,62.31
2018-04-28T15:50:12.916Z,62.56
2018-04-28T15:52:41.805Z,62.71
2018-04-28T15:55:10.903Z,62.33
2018-04-28T15:57:39.892Z,63.40
2018-04-28T16:00:08.720Z,62.54
2018-04-28T16:02:37.686Z,63.05
2018-04-28T16:05:07.479Z,63.05
2018-04-28T16:07:36.601Z,63.61
2018-04-28T16:10:07.191Z,64.55
2018-04-28T16:12:36.140Z,65.40
2018-04-28T16:15:05.219Z,65.24
2018-04-28T16:17:34.139Z,66.61
2018-04-28T16:20:03.101Z,66.11
2018-04-28T16:22:31.966Z,66.51
2018-04-28T16:25:02.927Z,66.68
2018-04-28T16:27:31.836Z,67.35
2018-04-28T16:30:00.698Z,67.71
2018-04-28T16:32:29.708Z,68.38
2018-04-28T16:34:58.603Z,68.32
2018-04-28T16:37:27.541Z,67.88
2018-04-28T16:39:56.480Z,68.17
2018-04-28T16:42:25.306Z,68.65
2018-04-28T16:44:54.163Z,69.01
2018-04-28T16:47:23.161Z,68.87
2018-04-28T16:49:52.360Z,68.60
2018-04-28T16:52:21.249Z,68.83
2018-04-28T16:54:51.895Z,69.19
2018-04-28T16:57:21.079Z,69.55
2018-04-28T16:59:58.435Z,69.86
2018-04-28T17:02:27.329Z,69.39
2018-04-28T17:04:57.294Z,69.69
2018-04-28T17:07:27.298Z,70.05
2018-04-28T17:09:56.195Z,70.55
2018-04-28T17:12:25.092Z,70.92
2018-04-28T17:14:55.109Z,71.25
2018-04-28T17:17:35.969Z,71.18
2018-04-28T17:20:04.960Z,71.88
2018-04-28T17:22:33.756Z,72.09
2018-04-28T17:25:02.819Z,72.62
2018-04-28T17:27:31.751Z,72.72
2018-04-28T17:30:00.738Z,73.22
2018-04-28T17:32:29.732Z,73.79
2018-04-28T17:34:59.863Z,74.31
2018-04-28T17:37:29.123Z,75.34
2018-04-28T17:39:58.149Z,75.31
2018-04-28T17:42:27.300Z,76.62
2018-04-28T17:44:56.127Z,76.97
2018-04-28T17:47:25.107Z,77.29
2018-04-28T17:49:54.022Z,77.58
2018-04-28T17:52:22.996Z,78.86
2018-04-28T17:54:51.907Z,79.77
2018-04-28T17:57:21.824Z,80.50
2018-04-28T17:59:50.926Z,81.12
2018-04-28T18:02:20.014Z,81.63
2018-04-28T18:04:53.725Z,82.04
2018-04-28T18:07:23.671Z,82.27
2018-04-28T18:09:52.637Z,83.60
2018-04-28T18:12:28.379Z,85.22
2018-04-28T18:14:57.589Z,86.20
2018-04-28T18:17:27.396Z,85.89
2018-04-28T18:19:56.495Z,87.09
2018-04-28T18:22:25.389Z,87.69
2018-04-28T18:24:54.380Z,88.98
2018-04-28T18:27:25.026Z,89.54
2018-04-28T18:29:54.810Z,90.20
2018-04-28T18:32:23.757Z,90.58
2018-04-28T18:34:53.595Z,90.76
2018-04-28T18:37:22.733Z,91.65
2018-04-28T18:39:51.731Z,92.02
2018-04-28T18:42:21.481Z,91.89
2018-04-28T18:44:50.460Z,92.36
2018-04-28T18:47:19.419Z,92.89
2018-04-28T18:49:49.237Z,93.23
2018-04-28T18:52:18.081Z,94.07
2018-04-28T18:54:47.025Z,94.99
2018-04-28T18:57:18.473Z,96.35
2018-04-28T18:59:48.373Z,96.56
2018-04-28T19:02:22.290Z,97.36
2018-04-28T19:04:51.952Z,97.59
2018-04-28T19:07:20.903Z,97.98
2018-04-28T19:09:51.516Z,97.99
2018-04-28T19:12:20.432Z,98.10
2018-04-28T19:14:49.316Z,98.15
2018-04-28T19:17:19.121Z,97.67
2018-04-28T19:19:48.324Z,97.71
2018-04-28T19:22:17.388Z,97.85
2018-04-28T19:27:33.096Z,98.45
2018-04-28T19:30:01.960Z,98.39
2018-04-28T19:32:31.716Z,98.33
2018-04-28T19:35:01.730Z,98.22
2018-04-28T19:37:30.671Z,98.50
2018-04-28T19:40:01.289Z,98.25
2018-04-28T19:42:30.249Z,98.76
2018-04-28T19:44:59.146Z,98.97
2018-04-28T19:47:28.954Z,99.02
2018-04-28T19:49:57.946Z,98.83
2018-04-28T19:52:26.773Z,98.99
2018-04-28T19:54:55.740Z,99.37
2018-04-28T19:57:24.727Z,99.62
2018-04-28T19:59:53.560Z,99.55
2018-04-28T20:02:30.297Z,99.67
2018-04-28T20:04:59.240Z,99.67
2018-04-28T20:07:28.175Z,99.36
2018-04-28T20:09:57.095Z,99.18
2018-04-28T20:12:26.063Z,99.27
2018-04-28T20:14:55.062Z,99.32
2018-04-28T20:17:23.882Z,99.26
2018-04-28T20:19:52.943Z,99.17
2018-04-28T20:22:33.595Z,98.88
2018-04-28T20:25:14.076Z,98.91
2018-04-28T20:27:43.888Z,99.04
2018-04-28T20:30:12.969Z,99.31
2018-04-28T20:32:41.864Z,99.12
2018-04-28T20:35:13.636Z,98.83
2018-04-28T20:37:42.465Z,98.83
2018-04-28T20:40:11.370Z,98.44
2018-04-28T20:45:15.453Z,98.40
2018-04-28T20:47:44.397Z,98.30
2018-04-28T20:50:15.012Z,98.08
2018-04-28T20:52:43.969Z,98.11
2018-04-28T20:55:12.861Z,97.53
2018-04-28T20:57:41.846Z,97.33
2018-04-28T21:00:10.956Z,96.92
2018-04-28T21:02:44.084Z,96.70
2018-04-28T21:05:13.922Z,96.47
2018-04-28T21:07:42.847Z,96.40
2018-04-28T21:10:12.754Z,96.75
2018-04-28T21:12:41.656Z,96.64
2018-04-28T21:15:10.472Z,96.32
2018-04-28T21:17:39.374Z,96.33
2018-04-28T21:20:08.473Z,96.24
2018-04-28T21:22:37.433Z,96.03
2018-04-28T21:25:09.095Z,95.66
2018-04-28T21:27:37.896Z,95.38
2018-04-28T21:30:06.867Z,95.18
2018-04-28T21:32:36.200Z,95.36
2018-04-28T21:35:05.232Z,95.33
2018-04-28T21:37:34.158Z,95.58
2018-04-28T21:40:04.895Z,95.50
2018-04-28T21:42:33.786Z,95.53
2018-04-28T21:45:02.748Z,95.39
2018-04-28T21:50:06.478Z,95.51
2018-04-28T21:52:35.291Z,95.33
2018-04-28T21:55:04.182Z,94.94
2018-04-28T21:57:33.278Z,94.75
2018-04-28T22:00:02.064Z,94.41
2018-04-28T22:02:31.165Z,94.02
2018-04-28T22:05:00.838Z,93.80
2018-04-28T22:07:29.767Z,94.08
2018-04-28T22:09:58.653Z,94.37
2018-04-28T22:12:28.529Z,94.47
2018-04-28T22:14:57.579Z,94.62
2018-04-28T22:17:26.668Z,94.61
2018-04-28T22:19:55.667Z,94.63
2018-04-28T22:22:24.549Z,94.17
2018-04-28T22:24:53.441Z,93.86
2018-04-28T22:27:22.646Z,93.74
2018-04-28T22:29:53.064Z,93.70
2018-04-28T22:32:21.899Z,93.69
2018-04-28T22:34:50.852Z,93.94
2018-04-28T22:37:19.938Z,93.87
2018-04-28T22:39:48.876Z,93.85
2018-04-28T22:42:18.700Z,93.73
2018-04-28T22:44:47.593Z,93.83
2018-04-28T22:47:16.434Z,93.66
2018-04-28T22:52:19.702Z,93.57
2018-04-28T22:54:48.579Z,93.37
2018-04-28T22:57:17.524Z,93.71
2018-04-28T22:59:46.479Z,94.22
2018-04-28T23:02:15.423Z,94.27
2018-04-28T23:04:49.939Z,94.03
2018-04-28T23:07:18.829Z,93.80
2018-04-28T23:09:47.621Z,93.63
2018-04-28T23:12:18.673Z,93.70
2018-04-28T23:14:47.660Z,93.82
2018-04-28T23:17:16.557Z,94.27
2018-04-28T23:19:45.634Z,94.46
2018-04-28T23:22:17.614Z,94.34
2018-04-28T23:24:52.515Z,93.73
2018-04-28T23:27:21.437Z,93.52
2018-04-28T23:29:50.437Z,93.37
2018-04-28T23:34:54.996Z,93.27
2018-04-28T23:37:24.064Z,93.42
2018-04-28T23:39:53.062Z,93.41
2018-04-28T23:42:21.955Z,93.43
2018-04-28T23:44:50.843Z,93.42
2018-04-28T23:47:20.964Z,93.39
2018-04-28T23:49:49.857Z,93.49
2018-04-28T23:52:18.851Z,93.54
2018-04-28T23:57:23.490Z,94.37
2018-04-28T23:59:52.491Z,94.32
